createdAt,value
2023-07-04T00:01:36.344Z,4.03
2023-07-04T00:04:08.875Z,3.55
2023-07-04T00:06:38.026Z,4.05
2023-07-04T00:09:06.549Z,3.95
2023-07-04T00:11:35.071Z,4.05
2023-07-04T00:14:02.940Z,3.60
2023-07-04T00:16:30.788Z,4.18
2023-07-04T00:18:58.751Z,3.65
2023-07-04T00:21:27.422Z,4.07
2023-07-04T00:23:55.104Z,4.05
2023-07-04T00:26:25.070Z,3.72
2023-07-04T00:28:53.828Z,3.70
2023-07-04T00:31:25.721Z,3.85
2023-07-04T00:33:55.062Z,3.95
2023-07-04T00:36:23.534Z,4.15
2023-07-04T00:38:57.087Z,4.07
2023-07-04T00:41:28.329Z,4.00
2023-07-04T00:44:10.830Z,3.75
2023-07-04T00:47:08.561Z,3.42
2023-07-04T00:49:43.654Z,3.70
2023-07-04T00:52:17.359Z,3.78
2023-07-04T00:54:54.082Z,3.28
2023-07-04T00:57:26.738Z,4.18
2023-07-04T00:59:59.667Z,3.55
2023-07-04T01:02:32.970Z,3.58
2023-07-04T01:05:04.914Z,3.45
2023-07-04T01:08:20.395Z,4.13
2023-07-04T01:10:49.152Z,4.20
2023-07-04T01:13:35.335Z,3.90
2023-07-04T01:16:10.537Z,4.28
2023-07-04T01:18:39.747Z,3.92
2023-07-04T01:21:10.355Z,4.25
2023-07-04T01:23:59.687Z,5.55
2023-07-04T01:26:38.227Z,4.68
2023-07-04T01:29:11.801Z,4.78
2023-07-04T01:31:45.373Z,4.00
2023-07-04T01:34:14.644Z,4.28
2023-07-04T01:36:43.629Z,5.35
2023-07-04T01:39:16.640Z,5.00
2023-07-04T01:41:47.036Z,4.70
2023-07-04T01:44:20.316Z,4.75
2023-07-04T01:46:48.033Z,4.63
2023-07-04T01:49:16.638Z,3.97
2023-07-04T01:51:44.436Z,5.30
2023-07-04T01:54:18.396Z,4.20
2023-07-04T01:56:49.724Z,4.00
2023-07-04T01:59:17.416Z,4.25
2023-07-04T02:01:45.245Z,4.57
2023-07-04T02:04:13.099Z,4.32
2023-07-04T02:06:40.777Z,4.63
2023-07-04T02:09:08.924Z,4.15
2023-07-04T02:11:38.361Z,4.47
2023-07-04T02:14:07.447Z,4.32
2023-07-04T02:16:35.225Z,4.32
2023-07-04T02:19:03.193Z,4.10
2023-07-04T02:21:30.888Z,4.72
2023-07-04T02:24:00.789Z,3.90
2023-07-04T02:26:29.559Z,4.13
2023-07-04T02:28:57.574Z,4.63
2023-07-04T02:31:25.617Z,5.07
2023-07-04T02:33:54.574Z,4.78
2023-07-04T02:36:22.884Z,5.30
2023-07-04T02:38:52.006Z,4.50
2023-07-04T02:41:20.494Z,4.43
2023-07-04T02:43:53.068Z,5.32
2023-07-04T02:46:21.516Z,4.68
2023-07-04T02:48:53.038Z,5.20
2023-07-04T02:51:20.871Z,5.13
2023-07-04T02:53:49.037Z,4.60
2023-07-04T02:56:16.780Z,4.10
2023-07-04T02:58:44.996Z,5.13
2023-07-04T03:01:12.953Z,4.28
2023-07-04T03:03:42.434Z,4.68
2023-07-04T03:06:11.438Z,4.55
2023-07-04T03:08:41.805Z,5.25
2023-07-04T03:11:09.673Z,4.40
2023-07-04T03:13:37.436Z,4.22
2023-07-04T03:16:06.523Z,4.45
2023-07-04T03:18:35.352Z,4.57
2023-07-04T03:21:03.800Z,5.13
2023-07-04T03:23:31.537Z,4.90
2023-07-04T03:25:59.905Z,4.13
2023-07-04T03:28:27.752Z,4.43
2023-07-04T03:30:57.235Z,4.22
2023-07-04T03:33:26.765Z,4.00
2023-07-04T03:35:59.683Z,5.13
2023-07-04T03:41:00.342Z,4.25
2023-07-04T03:43:29.002Z,3.90
2023-07-04T03:45:56.773Z,3.97
2023-07-04T03:48:24.892Z,4.25
2023-07-04T03:50:53.132Z,4.03
2023-07-04T03:53:21.275Z,4.60
2023-07-04T03:55:50.829Z,3.88
2023-07-04T03:58:19.000Z,6.07
2023-07-04T04:00:51.742Z,4.22
2023-07-04T04:03:20.130Z,3.95
2023-07-04T04:05:48.231Z,4.88
2023-07-04T04:08:16.046Z,3.90
2023-07-04T04:10:44.385Z,3.67
2023-07-04T04:13:12.154Z,3.55
2023-07-04T04:15:39.903Z,3.72
2023-07-04T04:18:07.526Z,3.72
2023-07-04T04:20:35.459Z,4.25
2023-07-04T04:23:03.265Z,3.38
2023-07-04T04:25:39.551Z,4.97
2023-07-04T04:28:08.878Z,3.70
2023-07-04T04:30:37.952Z,3.90
2023-07-04T04:33:05.908Z,3.92
2023-07-04T04:35:34.309Z,3.47
2023-07-04T04:38:02.120Z,3.70
2023-07-04T04:40:29.987Z,3.22
2023-07-04T04:42:57.945Z,3.65
2023-07-04T04:45:25.935Z,4.95
2023-07-04T04:47:56.501Z,3.28
2023-07-04T04:50:26.218Z,3.55
2023-07-04T04:52:54.059Z,3.30
2023-07-04T04:55:21.745Z,3.33
2023-07-04T04:57:49.456Z,4.00
2023-07-04T05:00:18.147Z,3.63
2023-07-04T05:02:46.480Z,3.83
2023-07-04T05:05:14.551Z,3.28
2023-07-04T05:07:42.523Z,3.85
2023-07-04T05:10:10.608Z,3.50
2023-07-04T05:12:40.063Z,3.35
2023-07-04T05:15:09.300Z,3.45
2023-07-04T05:17:37.101Z,3.63
2023-07-04T05:20:06.619Z,3.67
2023-07-04T05:22:34.719Z,3.55
2023-07-04T05:25:02.839Z,3.83
2023-07-04T05:27:31.894Z,3.90
2023-07-04T05:29:59.775Z,4.03
2023-07-04T05:32:27.417Z,3.58
2023-07-04T05:34:55.163Z,4.32
2023-07-04T05:37:23.042Z,3.85
2023-07-04T05:39:51.626Z,3.75
2023-07-04T05:42:19.419Z,3.85
2023-07-04T05:44:47.128Z,3.92
2023-07-04T05:47:14.968Z,3.60
2023-07-04T05:49:42.739Z,4.10
2023-07-04T05:52:10.527Z,3.90
2023-07-04T05:54:38.297Z,3.78
2023-07-04T05:57:37.173Z,4.25
2023-07-04T06:08:47.048Z,4.15
2023-07-04T06:16:08.716Z,4.13
2023-07-04T06:19:10.403Z,5.13
2023-07-04T06:21:44.337Z,4.55
2023-07-04T06:24:27.762Z,4.40
2023-07-04T06:27:06.500Z,5.00
2023-07-04T06:29:37.130Z,4.50
2023-07-04T06:32:09.098Z,3.83
2023-07-04T06:34:50.011Z,4.40
2023-07-04T06:37:19.626Z,4.43
2023-07-04T06:39:47.661Z,4.45
2023-07-04T06:42:16.044Z,4.50
2023-07-04T06:44:50.327Z,3.80
2023-07-04T06:47:18.520Z,4.65
2023-07-04T06:49:47.867Z,4.40
2023-07-04T06:54:44.121Z,4.25
2023-07-04T06:57:12.402Z,4.30
2023-07-04T06:59:40.530Z,3.83
2023-07-04T10:01:51.719Z,4.40
2023-07-04T10:04:44.733Z,4.45
2023-07-04T10:07:15.629Z,4.60
2023-07-04T10:09:56.859Z,4.53
2023-07-04T10:12:26.901Z,3.88
2023-07-04T10:14:57.929Z,4.28
2023-07-04T10:17:29.279Z,4.50
2023-07-04T10:20:10.920Z,4.00
2023-07-04T10:22:48.150Z,4.20
2023-07-04T10:25:23.785Z,4.13
2023-07-04T10:27:59.784Z,4.20
2023-07-04T10:30:40.161Z,4.38
2023-07-04T10:33:16.790Z,3.80
2023-07-04T10:35:49.879Z,4.75
2023-07-04T10:38:39.179Z,4.00
2023-07-04T10:41:20.065Z,4.43
2023-07-04T10:43:54.493Z,4.15
2023-07-04T10:46:26.705Z,4.05
2023-07-04T10:49:02.713Z,4.63
2023-07-04T10:51:36.275Z,4.47
2023-07-04T10:54:06.290Z,5.28
2023-07-04T10:56:37.791Z,3.85
2023-07-04T10:59:17.680Z,3.90
2023-07-04T11:04:41.076Z,4.03
2023-07-04T11:07:23.218Z,4.32
2023-07-04T11:10:01.926Z,3.75
2023-07-04T11:12:37.566Z,4.47
2023-07-04T11:15:10.458Z,4.30
2023-07-04T11:17:42.596Z,4.82
2023-07-04T11:20:39.748Z,4.10
2023-07-04T11:27:10.711Z,3.95
2023-07-04T11:29:52.513Z,4.20
2023-07-04T11:32:39.436Z,4.18
2023-07-04T11:35:17.218Z,4.75
2023-07-04T11:37:56.583Z,3.95
2023-07-04T11:40:30.866Z,4.32
2023-07-04T11:43:04.539Z,4.10
2023-07-04T11:45:34.098Z,4.25
2023-07-04T11:48:32.525Z,4.72
2023-07-04T11:51:19.901Z,4.32
2023-07-04T11:54:03.335Z,4.00
2023-07-04T11:59:20.176Z,4.25
2023-07-04T12:02:09.676Z,4.20
2023-07-04T12:04:38.317Z,4.15
2023-07-04T12:07:16.417Z,3.90
2023-07-04T12:10:02.194Z,4.03
2023-07-04T12:12:36.696Z,4.38
2023-07-04T12:15:12.184Z,4.25
2023-07-04T12:17:47.206Z,4.25
2023-07-04T12:20:18.272Z,4.70
2023-07-04T12:22:53.383Z,4.43
2023-07-04T12:25:29.236Z,4.55
2023-07-04T12:28:01.551Z,4.22
2023-07-04T12:33:01.607Z,4.93
2023-07-04T12:35:33.116Z,4.43
2023-07-04T12:38:04.689Z,4.20
2023-07-04T12:40:33.466Z,4.28
2023-07-04T12:45:35.802Z,4.00
2023-07-04T12:50:40.881Z,4.68
2023-07-04T12:53:12.506Z,3.70
2023-07-04T12:55:41.657Z,3.78
2023-07-04T12:58:13.998Z,4.50
2023-07-04T13:01:00.169Z,4.78
2023-07-04T13:03:28.139Z,4.15
2023-07-04T13:05:59.271Z,4.00
2023-07-04T13:08:29.813Z,3.97
2023-07-04T13:11:00.883Z,3.67
2023-07-04T13:13:43.846Z,4.18
2023-07-04T13:16:22.239Z,4.47
2023-07-04T13:18:51.086Z,3.83
2023-07-04T13:21:28.382Z,4.38
2023-07-04T13:26:47.508Z,4.38
2023-07-04T13:34:32.485Z,4.15
2023-07-04T13:37:03.695Z,3.95
2023-07-04T13:42:20.983Z,4.50
2023-07-04T13:47:20.715Z,4.65
2023-07-04T13:49:48.648Z,4.07
2023-07-04T13:52:16.991Z,4.18
2023-07-04T13:54:45.028Z,4.10
2023-07-04T13:57:13.204Z,4.65
2023-07-04T13:59:41.256Z,4.47
2023-07-04T14:10:34.333Z,4.05
2023-07-04T14:13:03.624Z,4.07
2023-07-04T14:20:35.275Z,3.60
2023-07-04T14:25:45.448Z,4.10
2023-07-04T14:28:14.176Z,4.03
2023-07-04T14:30:42.642Z,3.88
2023-07-04T14:33:10.857Z,4.32
2023-07-04T14:35:42.510Z,4.45
2023-07-04T14:38:11.620Z,4.00
2023-07-04T14:43:11.853Z,4.05
2023-07-04T14:45:39.692Z,4.03
2023-07-04T14:48:09.765Z,4.22
2023-07-04T14:50:37.899Z,4.63
2023-07-04T14:53:06.028Z,4.05
2023-07-04T14:55:44.701Z,4.15
2023-07-04T14:59:12.389Z,3.78
2023-07-04T15:01:40.160Z,3.50
2023-07-04T15:04:07.959Z,4.50
2023-07-04T15:06:35.555Z,3.70
2023-07-04T15:09:04.009Z,4.32
2023-07-04T15:11:31.684Z,4.63
2023-07-04T15:14:11.799Z,4.70
2023-07-04T15:16:49.827Z,4.15
2023-07-04T15:19:23.533Z,5.53
2023-07-04T15:21:51.204Z,5.25
2023-07-04T15:24:19.671Z,4.07
2023-07-04T15:26:47.713Z,4.15
2023-07-04T15:29:15.690Z,4.38
2023-07-04T15:31:43.621Z,3.88
2023-07-04T15:34:12.279Z,4.85
2023-07-04T15:36:40.001Z,5.03
2023-07-04T15:39:07.621Z,4.10
2023-07-04T15:41:35.296Z,4.05
2023-07-04T15:44:03.755Z,3.83
2023-07-04T15:46:31.474Z,4.30
2023-07-04T15:48:59.332Z,4.55
2023-07-04T15:51:27.227Z,4.10
2023-07-04T15:53:55.213Z,4.03
2023-07-04T15:56:23.768Z,4.47
2023-07-04T15:58:51.536Z,4.20
2023-07-04T16:01:20.939Z,4.65
2023-07-04T16:03:49.285Z,4.32
2023-07-04T16:06:18.514Z,4.20
2023-07-04T16:08:46.151Z,4.60
2023-07-04T16:11:15.144Z,4.88
2023-07-04T16:13:43.747Z,3.83
2023-07-04T16:16:12.441Z,4.82
2023-07-04T16:18:40.239Z,4.47
2023-07-04T16:21:08.062Z,5.68
2023-07-04T16:23:35.892Z,4.22
2023-07-04T16:26:04.506Z,4.85
2023-07-04T16:28:32.161Z,4.38
2023-07-04T16:31:08.258Z,3.97
2023-07-04T16:33:36.471Z,4.10
2023-07-04T16:36:05.577Z,4.40
2023-07-04T16:38:34.017Z,3.90
2023-07-04T16:41:02.649Z,4.32
2023-07-04T16:43:31.344Z,4.28
2023-07-04T16:45:59.049Z,4.28
2023-07-04T16:48:26.828Z,4.68
2023-07-04T16:50:59.006Z,4.72
2023-07-04T16:53:28.139Z,4.80
2023-07-04T16:55:58.203Z,4.35
2023-07-04T16:58:27.120Z,4.60
2023-07-04T17:00:55.428Z,5.00
2023-07-04T17:03:24.061Z,4.75
2023-07-04T17:05:54.047Z,5.10
2023-07-04T17:08:24.918Z,4.70
2023-07-04T17:10:53.782Z,4.85
2023-07-04T17:13:37.070Z,4.93
2023-07-04T17:16:11.199Z,5.25
2023-07-04T17:18:39.959Z,4.22
2023-07-04T17:21:09.341Z,4.38
2023-07-04T17:23:37.252Z,4.55
2023-07-04T17:26:05.409Z,4.47
2023-07-04T17:28:34.214Z,4.80
2023-07-04T17:31:05.094Z,4.60
2023-07-04T17:33:33.265Z,4.82
2023-07-04T17:36:18.968Z,5.90
2023-07-04T17:38:47.410Z,5.22
2023-07-04T17:41:16.706Z,5.20
2023-07-04T17:43:45.921Z,4.63
2023-07-04T17:46:14.465Z,5.65
2023-07-04T17:48:47.198Z,4.88
2023-07-04T17:51:17.681Z,4.88
2023-07-04T17:53:45.719Z,5.07
2023-07-04T17:56:16.298Z,5.20
2023-07-04T17:58:44.457Z,5.43
2023-07-04T18:01:16.302Z,5.18
2023-07-04T18:03:46.321Z,5.47
2023-07-04T18:06:16.948Z,5.10
2023-07-04T18:08:45.262Z,5.85
2023-07-04T18:11:19.778Z,5.57
2023-07-04T18:13:47.715Z,6.05
2023-07-04T18:16:16.656Z,5.25
2023-07-04T18:18:44.890Z,5.35
2023-07-04T18:21:18.539Z,5.60
2023-07-04T18:23:48.248Z,6.50
2023-07-04T18:26:20.810Z,5.57
2023-07-04T18:29:02.418Z,5.78
2023-07-04T18:32:35.872Z,5.50
2023-07-04T18:39:51.596Z,6.78
2023-07-04T18:42:51.813Z,5.68
2023-07-04T18:48:48.897Z,5.47
2023-07-04T18:51:23.068Z,6.25
2023-07-04T18:53:51.645Z,5.68
2023-07-04T18:56:23.243Z,6.43
2023-07-04T18:58:55.967Z,6.18
2023-07-04T19:01:29.445Z,6.63
2023-07-04T19:04:04.021Z,5.57
2023-07-04T19:07:09.452Z,5.72
2023-07-04T19:09:40.486Z,6.53
2023-07-04T19:12:10.859Z,6.05
2023-07-04T19:14:38.735Z,6.65
2023-07-04T19:17:07.277Z,7.22
2023-07-04T19:19:40.519Z,7.40
2023-07-04T19:22:11.093Z,6.53
2023-07-04T19:24:41.352Z,5.60
2023-07-04T19:27:13.154Z,5.38
2023-07-04T19:29:42.086Z,6.45
2023-07-04T19:32:10.644Z,6.70
2023-07-04T19:34:38.526Z,5.85
2023-07-04T19:37:10.507Z,6.80
2023-07-04T19:39:50.287Z,6.47
2023-07-04T19:42:18.146Z,6.25
2023-07-04T19:44:46.152Z,6.65
2023-07-04T19:47:15.790Z,6.78
2023-07-04T19:49:43.955Z,6.85
2023-07-04T19:52:14.103Z,6.10
2023-07-04T19:54:44.528Z,6.38
2023-07-04T19:57:22.303Z,6.30
2023-07-04T20:00:15.354Z,6.47
2023-07-04T20:03:07.617Z,5.68
2023-07-04T20:06:08.096Z,5.40
2023-07-04T20:08:55.085Z,6.28
2023-07-04T20:11:26.303Z,7.20
2023-07-04T20:13:54.327Z,10.23
2023-07-04T20:16:31.018Z,6.60
2023-07-04T20:19:00.065Z,7.22
2023-07-04T20:21:31.266Z,6.85
2023-07-04T20:23:59.198Z,5.65
2023-07-04T20:26:29.920Z,6.18
2023-07-04T20:28:59.217Z,6.13
2023-07-04T20:31:27.097Z,6.40
2023-07-04T20:33:54.957Z,6.57
2023-07-04T20:36:22.789Z,6.70
2023-07-04T20:38:50.990Z,6.50
2023-07-04T20:41:21.080Z,7.75
2023-07-04T20:43:48.854Z,7.32
2023-07-04T20:46:18.969Z,7.28
2023-07-04T20:48:46.991Z,7.35
2023-07-04T20:51:14.801Z,8.75
2023-07-04T20:53:44.409Z,7.80
2023-07-04T20:56:14.280Z,6.63
2023-07-04T20:59:01.118Z,7.13
2023-07-04T21:01:39.361Z,6.72
2023-07-04T21:04:35.815Z,6.43
2023-07-04T21:07:31.455Z,6.35
2023-07-04T21:10:28.442Z,6.60
2023-07-04T21:13:00.212Z,7.43
2023-07-04T21:15:29.342Z,6.82
2023-07-04T21:18:01.037Z,8.45
2023-07-04T21:20:29.004Z,7.35
2023-07-04T21:22:57.220Z,7.72
2023-07-04T21:25:49.322Z,6.57
2023-07-04T21:28:17.229Z,6.63
2023-07-04T21:30:45.084Z,6.57
2023-07-04T21:33:13.050Z,5.70
2023-07-04T21:35:41.930Z,6.18
2023-07-04T21:38:12.116Z,7.10
2023-07-04T21:40:40.037Z,6.25
2023-07-04T21:43:08.236Z,6.55
2023-07-04T21:45:37.149Z,7.18
2023-07-04T21:48:05.209Z,6.60
2023-07-04T21:50:33.072Z,7.07
2023-07-04T21:53:00.801Z,6.00
2023-07-04T21:55:28.702Z,6.55
2023-07-04T21:57:56.439Z,6.22
2023-07-04T22:00:24.198Z,6.63
2023-07-04T22:02:52.100Z,6.13
2023-07-04T22:05:19.898Z,5.97
2023-07-04T22:07:47.655Z,6.00
2023-07-04T22:10:15.705Z,5.18
2023-07-04T22:12:43.508Z,6.03
2023-07-04T22:15:11.839Z,6.20
2023-07-04T22:17:39.718Z,5.50
2023-07-04T22:20:07.988Z,5.80
2023-07-04T22:22:35.709Z,5.45
2023-07-04T22:25:03.454Z,6.20
2023-07-04T22:27:31.516Z,5.78
2023-07-04T22:29:59.375Z,6.00
2023-07-04T22:32:28.672Z,6.13
2023-07-04T22:34:56.468Z,6.10
2023-07-04T22:37:24.320Z,6.70
2023-07-04T22:39:52.097Z,5.95
2023-07-04T22:42:19.873Z,6.18
2023-07-04T22:44:47.624Z,6.47
2023-07-04T22:47:15.365Z,6.80
2023-07-04T22:49:43.100Z,6.47
2023-07-04T22:52:10.837Z,6.75
2023-07-04T22:54:38.559Z,6.78
2023-07-04T22:57:06.420Z,6.88
2023-07-04T22:59:34.214Z,8.07
2023-07-04T23:02:02.044Z,6.70
2023-07-04T23:04:29.902Z,5.50
2023-07-04T23:06:57.715Z,6.40
2023-07-04T23:09:25.405Z,7.13
2023-07-04T23:11:53.156Z,7.15
2023-07-04T23:14:21.082Z,6.43
2023-07-04T23:16:49.039Z,6.85
2023-07-04T23:19:16.890Z,6.75
2023-07-04T23:21:44.831Z,6.35
2023-07-04T23:24:12.626Z,6.57
2023-07-04T23:26:40.317Z,6.72
2023-07-04T23:29:08.252Z,7.00
2023-07-04T23:31:38.889Z,5.82
2023-07-04T23:34:07.058Z,7.10
2023-07-04T23:36:34.975Z,6.65
2023-07-04T23:39:02.863Z,6.18
2023-07-04T23:41:30.780Z,7.88
2023-07-04T23:43:58.896Z,7.28
2023-07-04T23:46:30.204Z,7.53
2023-07-04T23:49:07.245Z,6.40
2023-07-04T23:51:42.285Z,7.32
2023-07-04T23:54:35.874Z,7.63
2023-07-04T23:57:18.589Z,7.25
2023-07-04T23:59:49.666Z,7.53
